createdAt,value
2019-05-01T00:09:39.548Z,15.6
2019-05-01T00:14:47.836Z,15.5
2019-05-01T00:25:04.626Z,15.4
2019-05-01T00:55:56.528Z,14.8
2019-05-01T01:06:11.858Z,14.7
2019-05-01T01:26:45.538Z,14.4
2019-05-01T01:37:02.402Z,14.2
2019-05-01T01:47:19.425Z,14.3
2019-05-01T01:57:36.311Z,14.2
2019-05-01T02:07:53.188Z,14.1
2019-05-01T02:28:26.989Z,14
2019-05-01T02:38:43.960Z,13.9
2019-05-01T02:49:00.913Z,13.9
2019-05-01T02:59:17.865Z,13.9
2019-05-01T03:09:34.759Z,13.7
2019-05-01T03:19:51.816Z,13.7
2019-05-01T03:30:08.832Z,13.7
2019-05-01T03:35:17.251Z,13.7
2019-05-01T03:40:25.716Z,13.9
2019-05-01T03:50:45.792Z,13.7
2019-05-01T04:11:16.697Z,13.7
2019-05-01T04:21:33.682Z,13.7
2019-05-01T04:52:24.550Z,13.8
2019-05-01T05:02:41.515Z,13.8
2019-05-01T05:12:59.172Z,13.9
2019-05-01T05:23:15.419Z,14
2019-05-01T05:33:32.282Z,14.2
2019-05-01T05:59:14.445Z,14.6
2019-05-01T06:04:22.901Z,14.7
2019-05-01T06:14:39.718Z,14.8
2019-05-01T06:19:48.163Z,14.9
2019-05-01T06:24:56.682Z,15
2019-05-01T06:45:30.176Z,15.4
2019-05-01T07:06:03.652Z,15.8
2019-05-01T07:36:53.747Z,16.4
2019-05-01T07:42:02.051Z,16.6
2019-05-01T07:47:10.340Z,16.7
2019-05-01T07:57:27.010Z,17.1
2019-05-01T08:02:35.437Z,17.2
2019-05-01T08:07:43.627Z,17.3
2019-05-01T08:28:18.286Z,18.1
2019-05-01T08:38:33.163Z,18.6
2019-05-01T08:48:49.478Z,18.9
2019-05-01T08:53:57.635Z,19.1
2019-05-01T08:59:06.091Z,19.2
2019-05-01T09:19:38.226Z,20
2019-05-01T09:24:46.264Z,20.2
2019-05-01T09:29:54.450Z,20.4
2019-05-01T09:40:10.457Z,20.9
2019-05-01T09:50:26.459Z,21.5
2019-05-01T10:00:42.677Z,22
2019-05-01T10:10:58.403Z,22.7
2019-05-01T10:16:06.675Z,23
2019-05-01T10:21:14.227Z,23.4
2019-05-01T10:31:29.903Z,24.2
2019-05-01T10:36:37.696Z,24.6
2019-05-01T10:41:45.490Z,24.8
2019-05-01T10:46:53.372Z,25.3
2019-05-01T10:57:08.724Z,26.6
2019-05-01T11:02:16.333Z,27.6
2019-05-01T11:07:23.855Z,28.6
2019-05-01T11:12:31.400Z,29.6
2019-05-01T11:22:46.225Z,31.3
2019-05-01T11:27:53.565Z,32
2019-05-01T11:33:00.768Z,32.7
2019-05-01T11:38:08.095Z,33.1
2019-05-01T11:53:29.542Z,34.5
2019-05-01T11:58:37.176Z,34.8
2019-05-01T12:03:43.784Z,34.9
2019-05-01T12:13:57.948Z,35.1
2019-05-01T12:24:12.096Z,35.3
2019-05-01T12:44:40.454Z,35.1
2019-05-01T12:49:47.647Z,35
2019-05-01T12:54:54.503Z,34.9
2019-05-01T13:05:08.710Z,34.5
2019-05-01T13:10:15.907Z,34.3
2019-05-01T13:15:23.015Z,33.9
2019-05-01T13:25:37.510Z,33.8
2019-05-01T13:30:44.468Z,33.6
2019-05-01T13:40:58.867Z,33.1
2019-05-01T13:46:06.000Z,33
2019-05-01T13:51:13.160Z,32.8
2019-05-01T13:56:20.856Z,32.5
2019-05-01T14:06:34.938Z,32
2019-05-01T14:27:04.078Z,31
2019-05-01T14:37:18.850Z,30.7
2019-05-01T14:42:26.195Z,30.5
2019-05-01T14:47:33.467Z,30.1
2019-05-01T14:57:48.191Z,29.7
2019-05-01T15:08:03.010Z,29.6
2019-05-01T15:13:10.457Z,29.4
2019-05-01T15:18:18.155Z,29.4
2019-05-01T15:23:25.369Z,29.3
2019-05-01T15:28:32.972Z,29.4
2019-05-01T15:38:49.053Z,29.4
2019-05-01T16:09:32.370Z,29.7
2019-05-01T16:14:39.856Z,29.8
2019-05-01T16:55:39.249Z,29.1
2019-05-01T17:00:46.981Z,29
2019-05-01T17:21:16.677Z,28.4
2019-05-01T17:31:31.637Z,27.9
2019-05-01T17:36:39.111Z,27.7
2019-05-01T17:52:01.730Z,27.2
2019-05-01T17:57:09.290Z,26.9
2019-05-01T18:02:20.320Z,26.7
2019-05-01T18:07:24.544Z,26.5
2019-05-01T18:12:32.148Z,26.3
2019-05-01T18:17:39.724Z,25.9
2019-05-01T18:22:47.350Z,25.6
2019-05-01T18:27:55.042Z,25.3
2019-05-01T18:33:02.747Z,25
2019-05-01T18:38:10.515Z,24.8
2019-05-01T18:43:18.170Z,24.5
2019-05-01T18:53:33.650Z,24
2019-05-01T18:58:41.635Z,23.8
2019-05-01T19:03:49.169Z,23.5
2019-05-01T19:14:04.709Z,23.1
2019-05-01T19:34:36.080Z,22.1
2019-05-01T19:39:44.020Z,21.8
2019-05-01T19:44:51.968Z,21.6
2019-05-01T19:55:07.907Z,21.1
2019-05-01T20:05:23.775Z,20.7
2019-05-01T20:15:39.747Z,20.3
2019-05-01T20:25:56.846Z,19.9
2019-05-01T20:46:28.166Z,19
2019-05-01T21:01:52.663Z,18.4
2019-05-01T21:17:17.323Z,17.9
2019-05-01T21:27:33.424Z,17.6
2019-05-01T21:37:49.905Z,17.3
2019-05-01T21:42:58.916Z,17.2
2019-05-01T21:48:06.564Z,17.1
2019-05-01T21:58:22.771Z,16.9
2019-05-01T22:08:39.257Z,16.6
2019-05-01T22:18:55.785Z,16.4
2019-05-01T22:24:04.065Z,16.3
2019-05-01T22:29:12.420Z,16.1
2019-05-01T22:39:29.019Z,15.9
2019-05-01T22:54:54.082Z,15.6
2019-05-01T23:00:02.322Z,15.6
2019-05-01T23:10:19.010Z,15.3
2019-05-01T23:25:44.915Z,15.1
2019-05-01T23:30:52.576Z,15
2019-05-01T23:41:09.347Z,14.8
2019-05-01T23:51:26.048Z,14.6
